Time;durP1;ratioP1;P1;durP2;ratioP2;P2;SDS_P1;SDS_P2;PMS_P1;PMS_P2;Temp;Humidity;BMP_temperature;BMP_pressure;BME280_temperature;BME280_humidity;BME280_pressure;Samples;Min_cycle;Max_cycle;Signal;HPM_P1;HPM_P2
2021/07/17 00:00:21;;;;;;;;;;;18.10;99.90;;;;;;5077059;28;19908;-81
2021/07/17 00:02:47;;;;;;;;;;;18.10;99.90;;;;;;5076252;28;19907;-82
2021/07/17 00:05:13;;;;;;;;;;;18.10;99.90;;;;;;5076745;28;19995;-82
2021/07/17 00:07:39;;;;;;;;;;;18.20;99.90;;;;;;5076935;28;20287;-82
2021/07/17 00:10:06;;;;;;;;;;;18.10;99.90;;;;;;5077025;28;19911;-82
2021/07/17 00:12:32;;;;;;;;;;;18.00;99.90;;;;;;5076451;28;20189;-83
2021/07/17 00:14:57;;;;;;;;;;;18.10;99.90;;;;;;5076595;28;19904;-82
2021/07/17 00:17:22;;;;;;;;;;;18.00;99.90;;;;;;5076645;28;19953;-82
2021/07/17 00:19:48;;;;;;;;;;;18.10;99.90;;;;;;5076805;28;19908;-83
2021/07/17 00:22:13;;;;;;;;;;;18.10;99.90;;;;;;5076548;28;19943;-81
2021/07/17 00:24:39;;;;;;;;;;;18.00;99.90;;;;;;5076455;28;19915;-82
2021/07/17 00:27:04;;;;;;;;;;;18.10;99.90;;;;;;5076409;28;19907;-80
2021/07/17 00:29:30;;;;;;;;;;;18.10;99.90;;;;;;5076376;28;19904;-82
2021/07/17 00:31:55;;;;;;;;;;;18.10;99.90;;;;;;5076008;28;19908;-81
2021/07/17 00:34:21;;;;;;;;;;;18.00;99.90;;;;;;5076395;28;20428;-81
2021/07/17 00:36:46;;;;;;;;;;;18.00;99.90;;;;;;5076403;28;19907;-82
2021/07/17 00:39:11;;;;;;;;;;;18.00;99.90;;;;;;5075903;28;19904;-82
2021/07/17 00:41:37;;;;;;;;;;;18.00;99.90;;;;;;5075797;28;20007;-81
2021/07/17 00:44:02;;;;;;;;;;;18.00;99.90;;;;;;5076151;28;19954;-82
2021/07/17 00:46:28;;;;;;;;;;;17.90;99.90;;;;;;5094031;28;19934;-82
2021/07/17 00:48:54;;;;;;;;;;;17.90;99.90;;;;;;5076113;28;19908;-82
2021/07/17 00:51:22;;;;;;;;;;;17.90;99.90;;;;;;5094251;28;19962;-83
2021/07/17 00:53:48;;;;;;;;;;;17.90;99.90;;;;;;5093554;28;20344;-81
2021/07/17 00:56:14;;;;;;;;;;;18.00;99.90;;;;;;5075157;28;20002;-81
2021/07/17 00:58:41;;;;;;;;;;;17.90;99.90;;;;;;5094090;28;19979;-83
2021/07/17 01:01:07;;;;;;;;;;;17.90;99.90;;;;;;5075819;28;19904;-83
2021/07/17 01:03:32;;;;;;;;;;;17.90;99.90;;;;;;5075725;28;19957;-81
2021/07/17 01:05:58;;;;;;;;;;;17.90;99.90;;;;;;5075392;28;20367;-81
2021/07/17 01:08:23;;;;;;;;;;;17.80;99.90;;;;;;5075655;28;20365;-82
2021/07/17 01:10:49;;;;;;;;;;;17.90;99.90;;;;;;5075653;28;19919;-82
2021/07/17 01:13:15;;;;;;;;;;;17.90;99.90;;;;;;5093393;28;19908;-81
2021/07/17 01:15:40;;;;;;;;;;;17.90;99.90;;;;;;5075228;28;20431;-81
2021/07/17 01:18:07;;;;;;;;;;;17.90;99.90;;;;;;5075560;28;19947;-81
2021/07/17 01:20:33;;;;;;;;;;;17.90;99.90;;;;;;5075356;28;20359;-81
2021/07/17 01:22:58;;;;;;;;;;;17.90;99.90;;;;;;5075269;28;19912;-82
2021/07/17 01:25:28;;;;;;;;;;;17.80;99.90;;;;;;5074829;28;19904;-81
2021/07/17 01:27:55;;;;;;;;;;;17.90;99.90;;;;;;5095087;28;19973;-82
2021/07/17 01:30:21;;;;;;;;;;;17.90;99.90;;;;;;5103812;28;19911;-81
2021/07/17 01:32:47;;;;;;;;;;;17.90;99.90;;;;;;5112302;28;19911;-81
2021/07/17 01:35:13;;;;;;;;;;;17.90;99.90;;;;;;5112485;28;20381;-82
2021/07/17 01:37:38;;;;;;;;;;;17.90;99.90;;;;;;5112513;28;19911;-81
2021/07/17 01:40:05;;;;;;;;;;;17.90;99.90;;;;;;5112443;28;19904;-82
2021/07/17 01:42:35;;;;;;;;;;;17.80;99.90;;;;;;5111922;28;19904;-81
2021/07/17 01:45:00;;;;;;;;;;;17.80;99.90;;;;;;5112252;28;19911;-82
2021/07/17 01:47:26;;;;;;;;;;;17.70;99.90;;;;;;5112199;28;19912;-82
2021/07/17 01:49:51;;;;;;;;;;;17.70;99.90;;;;;;5112463;28;19938;-82
2021/07/17 01:52:17;;;;;;;;;;;17.70;99.90;;;;;;5111972;28;19915;-81
2021/07/17 01:54:42;;;;;;;;;;;17.70;99.90;;;;;;5113116;28;19904;-81
2021/07/17 01:57:08;;;;;;;;;;;17.80;99.90;;;;;;5113034;28;19910;-82
2021/07/17 01:59:38;;;;;;;;;;;17.70;99.90;;;;;;5105563;28;19903;-81
2021/07/17 02:02:04;;;;;;;;;;;17.60;99.90;;;;;;5112173;28;19904;-82
2021/07/17 02:04:29;;;;;;;;;;;17.60;99.90;;;;;;5112289;28;20002;-82
2021/07/17 02:06:55;;;;;;;;;;;17.70;99.90;;;;;;5111818;28;19943;-82
2021/07/17 02:09:20;;;;;;;;;;;17.70;99.90;;;;;;5112242;28;19904;-81
2021/07/17 02:11:45;;;;;;;;;;;17.70;99.90;;;;;;5111983;28;19917;-81
2021/07/17 02:14:11;;;;;;;;;;;17.60;99.90;;;;;;5111937;28;19998;-81
2021/07/17 02:16:37;;;;;;;;;;;17.50;99.90;;;;;;5113264;28;19907;-82
2021/07/17 02:19:07;;;;;;;;;;;17.60;99.90;;;;;;5111965;28;19904;-82
2021/07/17 02:21:33;;;;;;;;;;;17.60;99.90;;;;;;5111916;28;19904;-82
2021/07/17 02:23:58;;;;;;;;;;;17.60;99.90;;;;;;5111500;28;19904;-83
2021/07/17 02:26:24;;;;;;;;;;;17.50;99.90;;;;;;5111638;28;19903;-83
2021/07/17 02:28:49;;;;;;;;;;;17.50;99.90;;;;;;5112190;28;20650;-83
2021/07/17 02:31:15;;;;;;;;;;;17.60;99.90;;;;;;5111833;28;20048;-82
2021/07/17 02:33:40;;;;;;;;;;;17.60;99.90;;;;;;5111465;28;19907;-81
2021/07/17 02:36:05;;;;;;;;;;;17.60;99.90;;;;;;5111785;28;19911;-83
2021/07/17 02:38:31;;;;;;;;;;;17.50;99.90;;;;;;5112084;28;19904;-83
2021/07/17 02:40:56;;;;;;;;;;;17.50;99.90;;;;;;5112209;28;19926;-81
2021/07/17 02:43:22;;;;;;;;;;;17.40;99.90;;;;;;5111475;28;20282;-81
2021/07/17 02:45:47;;;;;;;;;;;17.40;99.90;;;;;;5112780;28;19949;-81
2021/07/17 02:48:13;;;;;;;;;;;17.40;99.90;;;;;;5111754;28;19908;-81
2021/07/17 02:50:38;;;;;;;;;;;17.40;99.90;;;;;;5111720;28;19904;-81
2021/07/17 02:53:04;;;;;;;;;;;17.30;99.90;;;;;;5111232;28;20287;-83
2021/07/17 02:55:29;;;;;;;;;;;17.40;99.90;;;;;;5111586;28;19908;-81
2021/07/17 02:57:55;;;;;;;;;;;17.40;99.90;;;;;;5112755;28;19911;-81
2021/07/17 03:00:20;;;;;;;;;;;17.40;99.90;;;;;;5111561;28;19904;-82
2021/07/17 03:02:46;;;;;;;;;;;17.50;99.90;;;;;;5111362;28;20414;-81
2021/07/17 03:05:11;;;;;;;;;;;17.50;99.90;;;;;;5111706;28;20373;-81
2021/07/17 03:07:37;;;;;;;;;;;17.50;99.90;;;;;;5112641;28;19903;-81
2021/07/17 03:10:03;;;;;;;;;;;17.50;99.90;;;;;;5111564;28;19964;-83
2021/07/17 03:12:28;;;;;;;;;;;17.50;99.90;;;;;;5112186;28;19908;-83
2021/07/17 03:14:54;;;;;;;;;;;17.50;99.90;;;;;;5111559;28;19903;-83
2021/07/17 03:17:20;;;;;;;;;;;17.70;99.90;;;;;;5111624;28;20278;-81
2021/07/17 03:19:46;;;;;;;;;;;17.70;99.90;;;;;;5115341;28;19991;-82
2021/07/17 03:22:11;;;;;;;;;;;17.70;99.90;;;;;;5115379;28;19949;-81
2021/07/17 03:24:37;;;;;;;;;;;17.60;99.90;;;;;;5115105;28;19904;-83
2021/07/17 03:27:03;;;;;;;;;;;17.70;99.90;;;;;;5114917;28;19957;-83
2021/07/17 03:29:28;;;;;;;;;;;17.70;99.90;;;;;;5114846;28;20007;-82
2021/07/17 03:31:53;;;;;;;;;;;17.70;99.90;;;;;;5114458;28;19907;-81
2021/07/17 03:34:19;;;;;;;;;;;17.70;99.90;;;;;;5114872;28;19907;-81
2021/07/17 03:36:45;;;;;;;;;;;17.70;99.90;;;;;;5114574;28;19904;-83
2021/07/17 03:39:10;;;;;;;;;;;17.70;99.90;;;;;;5114843;28;19904;-81
2021/07/17 03:41:37;;;;;;;;;;;17.70;99.90;;;;;;5114642;28;20491;-81
2021/07/17 03:44:03;;;;;;;;;;;17.70;99.90;;;;;;5114783;28;19932;-81
2021/07/17 03:46:29;;;;;;;;;;;17.80;99.90;;;;;;5114312;28;20441;-81
2021/07/17 03:48:54;;;;;;;;;;;17.70;99.90;;;;;;5115868;28;19943;-82
2021/07/17 03:51:20;;;;;;;;;;;17.70;99.90;;;;;;5114365;28;20498;-83
2021/07/17 03:53:45;;;;;;;;;;;17.70;99.90;;;;;;5114402;28;20328;-83
2021/07/17 03:56:10;;;;;;;;;;;17.70;99.90;;;;;;5114433;28;20263;-81
2021/07/17 03:58:36;;;;;;;;;;;17.70;99.90;;;;;;5114377;28;19904;-80
2021/07/17 04:01:01;;;;;;;;;;;17.70;99.90;;;;;;5114315;28;19956;-82
2021/07/17 04:03:27;;;;;;;;;;;17.70;99.90;;;;;;5114312;28;19903;-81
2021/07/17 04:05:52;;;;;;;;;;;17.80;99.90;;;;;;5113941;28;19908;-83
2021/07/17 04:08:18;;;;;;;;;;;17.70;99.90;;;;;;5114108;28;20041;-83
2021/07/17 04:10:43;;;;;;;;;;;17.60;99.90;;;;;;5114068;28;19904;-83
2021/07/17 04:13:09;;;;;;;;;;;17.60;99.90;;;;;;5113814;28;20362;-83
2021/07/17 04:15:34;;;;;;;;;;;17.60;99.90;;;;;;5114047;28;19912;-82
2021/07/17 04:18:00;;;;;;;;;;;17.60;99.90;;;;;;5114042;28;20427;-82
2021/07/17 04:20:25;;;;;;;;;;;17.70;99.90;;;;;;5113894;28;19904;-81
2021/07/17 04:22:51;;;;;;;;;;;17.60;99.90;;;;;;5113438;28;20368;-81
2021/07/17 04:25:16;;;;;;;;;;;17.70;99.90;;;;;;5113741;28;19904;-82
2021/07/17 04:27:41;;;;;;;;;;;17.70;99.90;;;;;;5113319;28;20347;-82
2021/07/17 04:30:08;;;;;;;;;;;17.70;99.90;;;;;;5113293;28;19911;-81
2021/07/17 04:32:33;;;;;;;;;;;17.70;99.90;;;;;;5114378;28;19908;-82
2021/07/17 04:34:59;;;;;;;;;;;17.80;99.90;;;;;;5113507;28;20413;-80
2021/07/17 04:37:24;;;;;;;;;;;17.80;99.90;;;;;;5113425;28;19903;-82
2021/07/17 04:39:51;;;;;;;;;;;17.80;99.90;;;;;;5113233;28;20391;-82
2021/07/17 04:42:18;;;;;;;;;;;17.90;99.90;;;;;;5112535;28;19911;-82
2021/07/17 04:44:44;;;;;;;;;;;17.90;99.90;;;;;;5113062;28;20347;-81
2021/07/17 04:47:09;;;;;;;;;;;18.00;99.90;;;;;;5111338;28;19922;-82
2021/07/17 04:49:35;;;;;;;;;;;18.10;99.90;;;;;;5112101;28;20081;-82
2021/07/17 04:52:00;;;;;;;;;;;18.10;99.90;;;;;;5111953;28;19908;-81
2021/07/17 04:54:26;;;;;;;;;;;18.10;99.90;;;;;;5111643;28;20298;-81
2021/07/17 04:56:52;;;;;;;;;;;18.20;99.90;;;;;;5111386;28;20002;-80
2021/07/17 04:59:17;;;;;;;;;;;18.30;99.90;;;;;;5113023;28;19904;-82
2021/07/17 05:01:42;;;;;;;;;;;18.30;99.90;;;;;;5111571;28;20458;-81
2021/07/17 05:04:08;;;;;;;;;;;18.30;99.90;;;;;;5112845;28;19904;-81
2021/07/17 05:06:33;;;;;;;;;;;18.40;99.90;;;;;;5111669;28;19943;-81
2021/07/17 05:08:59;;;;;;;;;;;18.50;99.90;;;;;;5111560;28;19918;-81
2021/07/17 05:11:24;;;;;;;;;;;18.50;99.90;;;;;;5111555;28;19950;-80
2021/07/17 05:13:50;;;;;;;;;;;18.60;99.90;;;;;;5111280;28;19908;-81
2021/07/17 05:16:15;;;;;;;;;;;18.80;99.90;;;;;;5111869;28;20388;-81
2021/07/17 05:18:41;;;;;;;;;;;18.90;99.90;;;;;;5111431;28;20354;-80
2021/07/17 05:21:06;;;;;;;;;;;18.90;99.90;;;;;;5111606;28;19904;-81
2021/07/17 05:23:31;;;;;;;;;;;19.10;99.90;;;;;;5110999;28;20462;-80
2021/07/17 05:25:57;;;;;;;;;;;19.00;99.90;;;;;;5112573;28;19956;-81
2021/07/17 05:28:22;;;;;;;;;;;19.00;99.90;;;;;;5112423;28;19904;-80
2021/07/17 05:30:49;;;;;;;;;;;19.10;99.90;;;;;;5111136;28;19999;-81
2021/07/17 05:33:14;;;;;;;;;;;19.00;99.90;;;;;;5110905;28;19914;-81
2021/07/17 05:35:40;;;;;;;;;;;19.00;99.90;;;;;;5111114;28;19908;-81
2021/07/17 05:38:06;;;;;;;;;;;19.10;99.90;;;;;;5111090;28;19904;-80
2021/07/17 05:40:32;;;;;;;;;;;19.30;99.90;;;;;;5109939;28;19990;-80
2021/07/17 05:42:57;;;;;;;;;;;19.30;99.90;;;;;;5114567;28;19990;-80
2021/07/17 05:45:23;;;;;;;;;;;19.50;99.90;;;;;;5116930;28;20401;-81
2021/07/17 05:47:48;;;;;;;;;;;19.60;99.90;;;;;;5109978;28;19908;-83
2021/07/17 05:50:14;;;;;;;;;;;19.60;99.90;;;;;;5092385;28;19931;-81
2021/07/17 05:52:40;;;;;;;;;;;19.60;99.90;;;;;;5088930;28;19969;-81
2021/07/17 05:55:06;;;;;;;;;;;19.50;99.90;;;;;;5090176;28;19956;-82
2021/07/17 05:57:34;;;;;;;;;;;19.60;99.90;;;;;;5099826;28;20299;-83
2021/07/17 06:00:00;;;;;;;;;;;19.60;99.90;;;;;;5099180;28;19951;-83
2021/07/17 06:02:26;;;;;;;;;;;19.70;99.90;;;;;;5097139;28;19904;-82
2021/07/17 06:04:53;;;;;;;;;;;19.80;99.90;;;;;;5098025;28;19904;-81
2021/07/17 06:07:19;;;;;;;;;;;19.90;99.90;;;;;;5097143;28;19958;-81
2021/07/17 06:09:44;;;;;;;;;;;20.00;99.90;;;;;;5097770;28;19908;-81
2021/07/17 06:12:10;;;;;;;;;;;20.00;99.90;;;;;;5097121;28;19930;-81
2021/07/17 06:14:36;;;;;;;;;;;20.00;99.90;;;;;;5091191;28;19958;-80
2021/07/17 06:17:01;;;;;;;;;;;19.90;99.90;;;;;;5087367;28;19904;-81
2021/07/17 06:19:27;;;;;;;;;;;20.10;99.90;;;;;;5088509;28;19904;-81
2021/07/17 06:21:52;;;;;;;;;;;20.30;99.90;;;;;;5087595;28;20167;-82
2021/07/17 06:24:18;;;;;;;;;;;20.60;99.90;;;;;;5086591;28;20468;-81
2021/07/17 06:26:43;;;;;;;;;;;20.70;99.90;;;;;;5086966;28;19904;-83
2021/07/17 06:29:09;;;;;;;;;;;20.80;99.90;;;;;;5104989;28;19911;-82
2021/07/17 06:31:34;;;;;;;;;;;20.70;99.90;;;;;;5106527;28;20014;-81
2021/07/17 06:34:00;;;;;;;;;;;20.70;99.90;;;;;;5104634;28;19915;-81
2021/07/17 06:36:25;;;;;;;;;;;20.90;99.90;;;;;;5086647;28;19911;-81
2021/07/17 06:38:51;;;;;;;;;;;21.00;99.90;;;;;;5089457;28;20361;-80
2021/07/17 06:41:16;;;;;;;13.07;8.85;;;21.20;99.90;;;;;;5103055;28;19907;-81
2021/07/17 06:43:42;;;;;;;19.48;8.90;;;21.30;99.90;;;;;;5117014;28;20075;-80
2021/07/17 06:46:07;;;;;;;17.23;9.23;;;21.30;99.90;;;;;;5098109;28;20023;-81
2021/07/17 06:48:33;;;;;;;;;;;21.70;99.90;;;;;;5115905;28;20020;-81
2021/07/17 06:50:58;;;;;;;;;;;22.00;99.90;;;;;;5097046;28;19903;-82
2021/07/17 06:53:24;;;;;;;;;;;22.60;99.90;;;;;;5099832;28;20268;-82
2021/07/17 06:55:49;;;;;;;;;;;22.60;99.90;;;;;;5118922;28;20362;-82
2021/07/17 06:58:15;;;;;;;;;;;22.30;99.90;;;;;;5100525;28;19935;-80
2021/07/17 07:00:40;;;;;;;;;;;22.40;99.90;;;;;;5100123;28;20360;-81
2021/07/17 07:03:06;;;;;;;;;;;22.50;99.90;;;;;;5100377;28;19904;-79
2021/07/17 07:05:32;;;;;;;;;;;22.30;99.90;;;;;;5101002;28;24120;-80
2021/07/17 07:07:58;;;;;;;;;;;22.10;99.90;;;;;;5100995;28;25106;-82
2021/07/17 07:10:23;;;;;;;;;;;22.20;99.90;;;;;;5101605;28;19911;-83
2021/07/17 07:12:49;;;;;;;;;;;22.20;99.90;;;;;;5088583;28;19923;-83
2021/07/17 07:15:15;;;;;;;;;;;22.70;99.90;;;;;;5081346;28;19916;-83
2021/07/17 07:17:40;;;;;;;;;;;22.70;99.90;;;;;;5099250;28;19904;-81
2021/07/17 07:20:07;;;;;;;;;;;23.20;99.90;;;;;;5080369;28;19904;-81
2021/07/17 07:22:32;;;;;;;;;;;23.20;99.90;;;;;;5079952;28;19908;-82
2021/07/17 07:24:58;;;;;;;;;;;23.60;99.90;;;;;;5080646;28;19911;-82
2021/07/17 07:27:23;;;;;;;;;;;23.40;99.90;;;;;;5099013;28;19904;-83
2021/07/17 07:29:49;;;;;;;;;;;23.00;99.90;;;;;;5080697;28;19904;-81
2021/07/17 07:32:14;;;;;;;;;;;22.60;99.90;;;;;;5079356;28;19931;-81
2021/07/17 07:34:40;;;;;;;;;;;22.30;99.90;;;;;;5079951;28;20413;-80
2021/07/17 07:37:05;;;;;;;;;;;21.60;99.90;;;;;;5080083;28;24077;-81
2021/07/17 07:39:32;;;;;;;;;;;21.30;99.90;;;;;;5099239;28;19904;-82
2021/07/17 07:41:57;;;;;;;;;;;21.50;99.90;;;;;;5079845;28;19912;-80
2021/07/17 07:44:23;;;;;;;;;;;21.40;99.90;;;;;;5099359;28;20109;-82
2021/07/17 07:46:49;;;;;;;;;;;21.60;99.90;;;;;;5097757;28;20287;-80
2021/07/17 07:49:15;;;;;;;;;;;21.60;99.90;;;;;;5097237;28;19904;-81
2021/07/17 07:51:40;;;;;;;;;;;21.60;99.90;;;;;;5095213;28;19930;-81
2021/07/17 07:54:06;;;;;;;;;;;21.70;99.90;;;;;;5100138;28;20007;-83
2021/07/17 07:56:31;;;;;;;;;;;21.80;99.90;;;;;;5118895;28;19910;-82
2021/07/17 07:58:57;;;;;;;;;;;21.70;99.90;;;;;;5098660;28;19910;-83
2021/07/17 08:01:22;;;;;;;;;;;21.50;99.90;;;;;;5098816;28;19942;-82
2021/07/17 08:03:48;;;;;;;;;;;21.30;99.90;;;;;;5098836;28;19990;-81
2021/07/17 08:06:15;;;;;;;;;;;21.00;99.90;;;;;;5090262;28;19911;-83
2021/07/17 08:08:40;;;;;;;;;;;20.90;99.90;;;;;;5088931;28;19911;-82
2021/07/17 08:11:06;;;;;;;;;;;20.80;99.90;;;;;;5087261;28;19904;-82
2021/07/17 08:13:31;;;;;;;;;;;20.60;99.90;;;;;;5089121;28;20389;-82
2021/07/17 08:15:59;;;;;;;;;;;20.70;99.90;;;;;;5087696;28;19904;-79
2021/07/17 08:18:25;;;;;;;;;;;20.80;99.90;;;;;;5087733;28;19903;-84
2021/07/17 08:20:50;;;;;;;;;;;20.90;99.90;;;;;;5086846;28;19911;-80
2021/07/17 08:23:16;;;;;;;;;;;20.90;99.90;;;;;;5089802;28;19946;-83
2021/07/17 08:25:42;;;;;;;;;;;21.10;99.90;;;;;;5088648;28;20321;-81
2021/07/17 08:28:07;;;;;;;;;;;21.20;99.90;;;;;;5088275;28;19947;-81
2021/07/17 08:30:35;;;;;;;;;;;21.10;99.90;;;;;;5087999;28;20291;-81
2021/07/17 08:33:01;;;;;;;;;;;21.20;99.90;;;;;;5086876;28;20363;-81
2021/07/17 08:35:26;;;;;;;;;;;21.20;99.90;;;;;;5087275;28;19904;-83
2021/07/17 08:37:52;;;;;;;;;;;21.10;99.90;;;;;;5085665;28;19908;-82
2021/07/17 08:40:17;;;;;;;;;;;21.10;99.90;;;;;;5089103;28;19904;-79
2021/07/17 08:42:45;;;;;;;;;;;21.10;99.90;;;;;;5088440;28;19911;-81
2021/07/17 08:45:11;;;;;;;;;;;20.90;99.90;;;;;;5086801;28;19911;-81
2021/07/17 08:47:40;;;;;;;;;;;21.00;99.90;;;;;;5108254;28;20389;-81
2021/07/17 08:50:07;;;;;;;;;;;20.90;99.90;;;;;;5088148;28;19957;-82
2021/07/17 08:52:33;;;;;;;;;;;21.00;99.90;;;;;;5103960;28;19908;-82
2021/07/17 08:55:04;;;;;;;;;;;21.20;99.90;;;;;;5086292;28;20389;-83
2021/07/17 08:57:33;;;;;;;;;;;21.20;99.90;;;;;;5087060;28;19994;-82
2021/07/17 09:00:00;;;;;;;;;;;21.20;99.90;;;;;;5086517;28;19904;-81
2021/07/17 09:02:26;;;;;;;;;;;21.30;99.90;;;;;;5086047;28;19904;-83
2021/07/17 09:04:51;;;;;;;;;;;21.30;99.90;;;;;;5107460;28;20312;-82
2021/07/17 09:07:17;;;;;;;;;;;21.40;99.90;;;;;;5087605;28;19965;-82
2021/07/17 09:09:42;;;;;;;;;;;21.30;99.90;;;;;;5088036;28;19914;-85
2021/07/17 09:12:21;;;;;;;;;;;21.20;99.90;;;;;;5088609;28;19908;-84
2021/07/17 09:14:47;;;;;;;;;;;21.30;99.90;;;;;;5088925;28;20016;-83
2021/07/17 09:17:21;;;;;;;;;;;21.10;99.90;;;;;;5086022;28;19904;-82
2021/07/17 09:19:54;;;;;;;;;;;21.00;99.90;;;;;;5088579;28;19912;-83
2021/07/17 09:22:29;;;;;;;;;;;20.80;99.90;;;;;;5088232;28;19972;-80
2021/07/17 09:25:13;;;;;;;;;;;20.60;99.90;;;;;;5106583;28;19907;-84
2021/07/17 09:27:38;;;;;;;;;;;20.70;99.90;;;;;;5105550;28;19947;-84
2021/07/17 09:30:24;;;;;;;;;;;20.80;99.90;;;;;;5087225;28;19904;-82
2021/07/17 09:33:00;;;;;;;;;;;20.80;99.90;;;;;;5104674;28;20020;-83
2021/07/17 09:35:25;;;;;;;;;;;20.80;99.90;;;;;;5087531;28;19957;-82
2021/07/17 09:37:55;;;;;;;;;;;20.80;99.90;;;;;;5098703;28;19903;-82
2021/07/17 09:40:21;;;;;;;;;;;20.70;99.90;;;;;;5095861;28;19940;-83
2021/07/17 09:42:47;;;;;;;;;;;20.70;99.90;;;;;;5102454;28;19918;-81
2021/07/17 09:45:31;;;;;;;;;;;20.90;99.90;;;;;;5116443;28;19907;-84
2021/07/17 09:47:56;;;;;;;;;;;21.20;99.90;;;;;;5097819;28;20397;-81
2021/07/17 09:50:22;;;;;;;;;;;21.60;99.90;;;;;;5097993;28;19904;-80
2021/07/17 09:52:47;;;;;;;;;;;22.10;99.90;;;;;;5097606;28;19915;-83
2021/07/17 09:55:14;;;;;;;;;;;22.90;99.90;;;;;;5097493;28;19903;-83
2021/07/17 09:57:40;;;;;;;;;;;23.60;99.90;;;;;;5097216;28;19974;-82
2021/07/17 10:00:06;;;;;;;;;;;24.20;99.90;;;;;;5098297;28;20366;-81
2021/07/17 10:02:35;;;;;;;;;;;24.10;99.90;;;;;;5097197;28;20231;-84
2021/07/17 10:05:01;;;;;;;;;;;23.60;99.90;;;;;;5097326;28;19957;-83
2021/07/17 10:07:27;;;;;;;;;;;23.60;99.90;;;;;;5115538;28;20424;-82
2021/07/17 10:09:52;;;;;;;8.60;5.93;;;23.70;99.90;;;;;;5097005;28;20048;-82
2021/07/17 10:12:30;;;;;;;;;;;23.80;99.90;;;;;;5096883;28;20454;-81
2021/07/17 10:14:55;;;;;;;;;;;23.70;99.90;;;;;;5096229;28;19911;-81
2021/07/17 10:17:31;;;;;;;;;;;23.10;99.90;;;;;;5115616;28;24080;-80
2021/07/17 10:19:57;;;;;;;;;;;22.70;99.90;;;;;;5098289;28;19903;-80
2021/07/17 10:22:24;;;;;;;;;;;22.30;99.90;;;;;;5098305;28;20457;-82
2021/07/17 10:24:50;;;;;;;;;;;22.30;99.90;;;;;;5117298;28;19904;-83
2021/07/17 10:27:15;;;;;;;;;;;22.40;99.90;;;;;;5118203;28;20026;-81
2021/07/17 10:29:41;;;;;;;;;;;22.50;99.90;;;;;;5102079;28;19921;-80
2021/07/17 10:32:07;;;;;;;;;;;22.60;99.90;;;;;;5101028;28;19967;-82
2021/07/17 10:34:32;;;;;;;;;;;22.70;99.90;;;;;;5102510;28;20086;-82
2021/07/17 10:37:05;;;;;;;;;;;22.90;99.90;;;;;;5102725;28;19943;-79
2021/07/17 10:39:31;;;;;;;;;;;23.00;99.90;;;;;;5101405;28;19916;-83
2021/07/17 10:41:58;;;;;;;;;;;23.00;99.90;;;;;;5117605;28;19915;-82
2021/07/17 10:44:36;;;;;;;;;;;22.90;99.90;;;;;;5104129;28;20262;-80
2021/07/17 10:47:07;;;;;;;;;;;22.90;99.90;;;;;;5091323;28;19962;-82
2021/07/17 10:49:36;;;;;;;;;;;22.70;99.90;;;;;;5095439;28;19947;-83
2021/07/17 10:52:01;;;;;;;;;;;23.10;99.90;;;;;;5095999;28;20286;-82
2021/07/17 10:54:28;;;;;;;;;;;23.40;99.90;;;;;;5080038;28;19960;-82
2021/07/17 10:56:53;;;;;;;;;;;23.70;99.90;;;;;;5098009;28;20058;-81
2021/07/17 10:59:19;;;;;;;;;;;24.00;99.90;;;;;;5098949;28;19961;-83
2021/07/17 11:02:03;;;;;;;;;;;24.10;99.90;;;;;;5079905;28;19915;-82
2021/07/17 11:04:31;;;;;;;;;;;23.90;99.90;;;;;;5080003;28;19962;-82
2021/07/17 11:07:17;;;;;;;;;;;23.50;99.90;;;;;;5098603;28;19911;-80
2021/07/17 11:09:51;;;;;;;;;;;23.40;99.90;;;;;;5098984;28;19908;-82
2021/07/17 11:12:21;;;;;;;;;;;23.00;99.90;;;;;;5084269;28;19912;-82
2021/07/17 11:14:47;;;;;;;;;;;22.90;99.90;;;;;;5097530;28;24062;-82
2021/07/17 11:17:33;;;;;;;;;;;22.90;99.90;;;;;;5118215;28;19907;-83
2021/07/17 11:20:15;;;;;;;;;;;23.10;99.90;;;;;;5097391;28;19907;-82
2021/07/17 11:22:40;;;;;;;;;;;23.30;99.90;;;;;;5083541;28;19931;-81
2021/07/17 11:25:06;;;;;;;;;;;23.20;99.90;;;;;;5098898;28;20329;-84
2021/07/17 11:27:39;;;;;;;;;;;23.30;99.90;;;;;;5080108;28;19907;-83
2021/07/17 11:30:15;;;;;;;;;;;23.50;99.90;;;;;;5097089;28;19994;-84
2021/07/17 11:33:00;;;;;;;;;;;23.70;99.90;;;;;;5098436;28;19911;-83
2021/07/17 11:35:26;;;;;;;;;;;23.90;99.90;;;;;;5094292;28;19908;-81
2021/07/17 11:37:52;;;;;;;;;;;23.80;99.90;;;;;;5079869;28;19904;-82
2021/07/17 11:40:18;;;;;;;;;;;23.80;99.90;;;;;;5078981;28;19990;-83
2021/07/17 11:42:43;;;;;;;;;;;24.10;99.90;;;;;;5100850;28;19939;-82
2021/07/17 11:45:09;;;;;;;;;;;24.40;99.90;;;;;;5083361;28;19911;-80
2021/07/17 11:47:35;;;;;;;;;;;24.90;99.90;;;;;;5082859;28;19912;-84
2021/07/17 11:50:02;;;;;;;;;;;24.90;99.90;;;;;;5122079;28;20269;-83
2021/07/17 11:52:29;;;;;;;;;;;24.80;99.90;;;;;;5103127;28;19907;-83
2021/07/17 11:54:56;;;;;;;;;;;24.50;99.90;;;;;;5103555;28;19904;-83
2021/07/17 11:57:23;;;;;;;;;;;24.60;99.90;;;;;;5102882;28;20346;-81
2021/07/17 11:59:55;;;;;;;;;;;24.20;99.90;;;;;;5096487;28;20573;-82
2021/07/17 12:02:22;;;;;;;;;;;24.30;99.90;;;;;;5091876;28;19915;-82
2021/07/17 12:04:51;;;;;;;;;;;24.30;99.90;;;;;;5090595;28;19908;-82
2021/07/17 12:07:21;;;;;;;;;;;24.10;99.90;;;;;;5082044;28;19925;-83
2021/07/17 12:09:48;;;;;;;;;;;23.90;99.90;;;;;;5082091;28;20291;-84
2021/07/17 12:12:26;;;;;;;;;;;23.70;99.90;;;;;;5081775;28;19908;-83
2021/07/17 12:14:56;;;;;;;;;;;23.80;99.90;;;;;;5081374;28;20278;-81
2021/07/17 12:17:22;;;;;;;;;;;24.00;99.90;;;;;;5081990;28;19908;-81
2021/07/17 12:20:06;;;;;;;;;;;24.20;99.90;;;;;;5083731;28;19964;-83
2021/07/17 12:22:31;;;;;;;;;;;25.00;99.90;;;;;;5081709;28;19926;-81
2021/07/17 12:25:17;;;;;;;;;;;25.80;99.90;;;;;;5100081;28;20311;-81
2021/07/17 12:27:50;;;;;;;;;;;26.00;99.90;;;;;;5081428;28;19927;-83
2021/07/17 12:30:16;;;;;;;;;;;25.60;99.90;;;;;;5081139;28;20501;-82
2021/07/17 12:32:41;;;;;;;;;;;25.20;99.90;;;;;;5080295;28;24053;-84
2021/07/17 12:35:07;;;;;;;;;;;24.90;99.90;;;;;;5099641;28;19912;-84
2021/07/17 12:37:32;;;;;;;;;;;24.90;99.90;;;;;;5081473;28;19998;-80
2021/07/17 12:40:05;;;;;;;;;;;24.90;99.90;;;;;;5081191;28;19903;-81
2021/07/17 12:42:32;;;;;;;;;;;24.90;99.90;;;;;;5099104;28;24088;-82
2021/07/17 12:44:57;;;;;;;;;;;25.00;99.90;;;;;;5081081;28;19904;-82
2021/07/17 12:47:23;;;;;;;;;;;24.70;99.90;;;;;;5080397;28;19911;-82
2021/07/17 12:49:58;;;;;;;;;;;24.50;99.90;;;;;;5080864;28;20275;-84
2021/07/17 12:52:24;;;;;;;;;;;24.50;99.90;;;;;;5099427;28;19915;-84
2021/07/17 12:54:49;;;;;;;;;;;24.60;99.90;;;;;;5099474;28;19916;-81
2021/07/17 12:57:16;;;;;;;;;;;24.80;99.90;;;;;;5081335;28;19975;-84
2021/07/17 12:59:41;;;;;;;;;;;24.80;99.90;;;;;;5080754;28;19951;-82
2021/07/17 13:02:15;;;;;;;;;;;24.60;99.90;;;;;;5081337;28;19915;-82
2021/07/17 13:04:44;;;;;;;;;;;24.50;99.90;;;;;;5081519;28;19908;-84
2021/07/17 13:07:10;;;;;;;;;;;24.40;99.90;;;;;;5099375;28;19908;-82
2021/07/17 13:09:37;;;;;;;;;;;24.40;99.90;;;;;;5080468;28;19904;-83
2021/07/17 13:12:04;;;;;;;;;;;24.60;99.90;;;;;;5098757;28;19968;-81
2021/07/17 13:14:30;;;;;;;;;;;24.90;99.90;;;;;;5080420;28;19952;-84
2021/07/17 13:16:56;;;;;;;;;;;25.30;99.90;;;;;;5080916;28;19943;-81
2021/07/17 13:19:22;;;;;;;;;;;25.60;99.90;;;;;;5080631;28;20414;-83
2021/07/17 13:21:48;;;;;;;;;;;25.60;99.90;;;;;;5080217;28;19995;-84
2021/07/17 13:24:17;;;;;;;;;;;25.50;99.90;;;;;;5080247;28;19947;-81
2021/07/17 13:26:51;;;;;;;;;;;25.60;99.90;;;;;;5098218;28;20378;-83
2021/07/17 13:29:21;;;;;;;;;;;25.20;99.90;;;;;;5099303;28;19965;-83
2021/07/17 13:31:50;;;;;;;;;;;25.30;99.90;;;;;;5079663;28;19915;-82
2021/07/17 13:34:16;;;;;;;;;;;25.70;99.90;;;;;;5098362;28;19915;-83
2021/07/17 13:36:50;;;;;;;;;;;26.10;99.90;;;;;;5079222;28;24061;-82
2021/07/17 13:39:16;;;;;;;;;;;26.00;99.90;;;;;;5078511;28;19994;-81
2021/07/17 13:41:41;;;;;;;;;;;25.90;99.90;;;;;;5097914;28;20397;-80
2021/07/17 13:44:11;;;;;;;;;;;26.10;99.90;;;;;;5079437;28;19904;-82
2021/07/17 13:46:36;;;;;;;;;;;26.60;99.90;;;;;;5079556;28;20399;-82
2021/07/17 13:49:09;;;;;;;;;;;26.30;99.90;;;;;;5098217;28;19908;-84
2021/07/17 13:51:34;;;;;;;;;;;26.00;99.90;;;;;;5079328;28;19950;-81
2021/07/17 13:54:03;;;;;;;;;;;25.70;99.90;;;;;;5079174;28;20326;-83
2021/07/17 13:56:29;;;;;;;;;;;25.60;99.90;;;;;;5079305;28;19904;-82
2021/07/17 13:58:58;;;;;;;;;;;25.40;99.90;;;;;;5098395;28;19904;-80
2021/07/17 14:01:23;;;;;;;;;;;25.90;99.90;;;;;;5079037;28;20363;-81
2021/07/17 14:03:48;;;;;;;;;;;26.00;99.90;;;;;;5079002;28;19914;-81
2021/07/17 14:06:17;;;;;;;;;;;26.00;99.90;;;;;;5080469;28;20375;-83
2021/07/17 14:08:43;;;;;;;;;;;26.00;99.90;;;;;;5097504;28;24063;-80
2021/07/17 14:11:11;;;;;;;;;;;26.40;99.90;;;;;;5097824;28;19904;-81
2021/07/17 14:13:36;;;;;;;;;;;27.00;99.90;;;;;;5078420;28;20209;-82